createdAt,value
2023-10-07T00:01:01.139Z,5.28
2023-10-07T00:03:28.105Z,4.78
2023-10-07T00:06:01.705Z,5.03
2023-10-07T00:08:29.499Z,4.50
2023-10-07T00:11:03.036Z,4.47
2023-10-07T00:13:32.931Z,4.80
2023-10-07T00:16:01.149Z,4.75
2023-10-07T00:18:29.256Z,5.05
2023-10-07T00:20:56.859Z,4.53
2023-10-07T00:23:27.511Z,4.55
2023-10-07T00:25:56.326Z,5.03
2023-10-07T00:28:34.592Z,4.75
2023-10-07T00:31:08.142Z,4.35
2023-10-07T00:33:51.585Z,4.50
2023-10-07T00:36:41.764Z,4.63
2023-10-07T00:39:10.346Z,4.88
2023-10-07T00:41:46.526Z,4.82
2023-10-07T00:44:24.408Z,4.80
2023-10-07T00:47:06.854Z,4.57
2023-10-07T00:49:52.054Z,4.72
2023-10-07T00:52:29.347Z,5.47
2023-10-07T00:55:05.956Z,6.53
2023-10-07T00:57:38.931Z,5.53
2023-10-07T01:00:24.841Z,4.83
2023-10-07T01:02:52.719Z,4.75
2023-10-07T01:05:28.413Z,4.68
2023-10-07T01:07:55.514Z,4.70
2023-10-07T01:10:32.700Z,5.28
2023-10-07T01:13:04.855Z,5.00
2023-10-07T01:15:36.015Z,5.05
2023-10-07T01:18:06.386Z,4.93
2023-10-07T01:20:49.240Z,4.80
2023-10-07T01:23:20.134Z,5.00
2023-10-07T01:25:51.548Z,4.53
2023-10-07T01:28:18.739Z,4.63
2023-10-07T01:31:03.818Z,5.07
2023-10-07T01:33:40.277Z,5.07
2023-10-07T01:36:17.273Z,5.32
2023-10-07T01:38:53.597Z,5.17
2023-10-07T01:41:21.711Z,4.70
2023-10-07T01:44:00.265Z,4.43
2023-10-07T01:46:28.986Z,4.70
2023-10-07T01:48:58.522Z,4.78
2023-10-07T01:51:30.451Z,4.80
2023-10-07T01:54:04.875Z,4.63
2023-10-07T01:56:33.080Z,4.85
2023-10-07T01:59:10.990Z,4.63
2023-10-07T02:01:42.690Z,5.10
2023-10-07T02:04:19.482Z,5.03
2023-10-07T02:06:55.491Z,4.90
2023-10-07T02:09:26.929Z,5.47
2023-10-07T02:11:55.300Z,5.05
2023-10-07T02:14:26.962Z,5.18
2023-10-07T02:16:55.339Z,5.17
2023-10-07T02:19:32.937Z,5.25
2023-10-07T02:22:01.488Z,5.30
2023-10-07T02:24:31.394Z,5.07
2023-10-07T02:27:04.788Z,5.57
2023-10-07T02:29:32.544Z,5.50
2023-10-07T02:32:08.382Z,5.35
2023-10-07T02:34:35.310Z,5.43
2023-10-07T02:37:22.298Z,5.20
2023-10-07T02:39:52.653Z,5.75
2023-10-07T02:42:22.864Z,5.37
2023-10-07T02:45:02.102Z,5.38
2023-10-07T02:47:32.999Z,5.10
2023-10-07T02:50:02.367Z,5.40
2023-10-07T02:52:37.169Z,5.38
2023-10-07T02:55:19.914Z,4.80
2023-10-07T02:57:58.879Z,5.78
2023-10-07T03:00:39.661Z,5.38
2023-10-07T03:03:16.059Z,5.18
2023-10-07T03:06:15.833Z,5.70
2023-10-07T03:08:44.999Z,5.20
2023-10-07T03:11:12.983Z,5.47
2023-10-07T03:13:47.242Z,5.57
2023-10-07T03:16:18.272Z,5.28
2023-10-07T03:18:56.574Z,5.10
2023-10-07T03:21:36.810Z,5.70
2023-10-07T03:24:12.595Z,5.20
2023-10-07T03:26:41.855Z,5.78
2023-10-07T03:29:09.230Z,5.70
2023-10-07T03:31:39.828Z,5.55
2023-10-07T03:34:10.142Z,4.97
2023-10-07T03:36:42.934Z,6.07
2023-10-07T03:39:17.266Z,6.18
2023-10-07T03:41:53.539Z,5.20
2023-10-07T03:44:22.262Z,5.38
2023-10-07T03:46:55.582Z,7.07
2023-10-07T03:49:23.669Z,5.68
2023-10-07T03:52:04.507Z,5.63
2023-10-07T03:54:31.974Z,5.30
2023-10-07T03:57:01.735Z,5.72
2023-10-07T03:59:33.146Z,5.63
2023-10-07T04:02:00.322Z,5.28
2023-10-07T04:04:27.600Z,5.40
2023-10-07T04:06:54.404Z,4.85
2023-10-07T04:09:28.532Z,5.13
2023-10-07T04:11:55.238Z,5.50
2023-10-07T04:14:32.174Z,5.00
2023-10-07T04:17:07.806Z,5.15
2023-10-07T04:19:42.026Z,5.22
2023-10-07T04:22:09.984Z,5.10
2023-10-07T04:24:39.382Z,5.37
2023-10-07T04:27:07.237Z,5.55
2023-10-07T04:29:34.418Z,5.70
2023-10-07T04:32:28.843Z,5.40
2023-10-07T04:35:21.944Z,5.80
2023-10-07T04:37:48.885Z,5.13
2023-10-07T04:40:16.283Z,5.30
2023-10-07T04:43:01.582Z,5.43
2023-10-07T04:45:38.637Z,5.68
2023-10-07T04:48:24.058Z,5.78
2023-10-07T04:51:08.716Z,9.10
2023-10-07T04:53:41.701Z,7.60
2023-10-07T04:56:09.982Z,8.05
2023-10-07T04:58:41.049Z,7.00
2023-10-07T05:01:31.370Z,6.78
2023-10-07T05:04:05.905Z,6.80
2023-10-07T05:06:35.853Z,6.80
2023-10-07T05:09:24.470Z,5.88
2023-10-07T05:11:51.756Z,6.40
2023-10-07T05:14:23.815Z,5.97
2023-10-07T05:16:51.041Z,5.23
2023-10-07T05:19:23.756Z,6.10
2023-10-07T05:22:06.474Z,6.15
2023-10-07T05:24:34.241Z,5.80
2023-10-07T05:27:01.952Z,5.93
2023-10-07T05:29:29.530Z,5.63
2023-10-07T05:31:57.810Z,6.20
2023-10-07T05:34:31.262Z,6.47
2023-10-07T05:37:12.462Z,5.65
2023-10-07T05:39:42.295Z,6.05
2023-10-07T05:44:40.729Z,6.00
2023-10-07T05:47:09.863Z,5.50
2023-10-07T05:49:39.086Z,5.45
2023-10-07T05:52:06.737Z,6.15
2023-10-07T05:54:33.875Z,5.80
2023-10-07T05:57:03.620Z,5.50
2023-10-07T05:59:34.651Z,5.57
2023-10-07T06:02:07.259Z,5.20
2023-10-07T06:04:35.141Z,5.10
2023-10-07T06:07:02.065Z,4.97
2023-10-07T06:09:29.920Z,4.75
2023-10-07T06:12:00.723Z,4.95
2023-10-07T06:14:27.641Z,4.70
2023-10-07T06:16:57.232Z,5.00
2023-10-07T06:19:24.796Z,5.50
2023-10-07T06:21:57.888Z,6.78
2023-10-07T06:24:25.133Z,5.47
2023-10-07T06:26:55.317Z,5.57
2023-10-07T06:29:22.160Z,6.00
2023-10-07T06:32:09.901Z,6.00
2023-10-07T06:34:42.361Z,6.13
2023-10-07T06:37:09.285Z,6.43
2023-10-07T06:39:36.119Z,4.72
2023-10-07T06:42:02.825Z,6.18
2023-10-07T06:44:31.679Z,6.23
2023-10-07T06:46:58.520Z,5.30
2023-10-07T06:49:25.375Z,5.30
2023-10-07T06:51:58.070Z,4.65
2023-10-07T06:54:33.123Z,5.05
2023-10-07T06:57:05.580Z,4.90
2023-10-07T06:59:32.358Z,5.40
2023-10-07T07:02:07.006Z,5.57
2023-10-07T07:04:36.797Z,5.47
2023-10-07T07:07:13.028Z,5.30
2023-10-07T07:09:51.736Z,4.80
2023-10-07T07:12:24.512Z,4.80
2023-10-07T07:14:52.487Z,4.60
2023-10-07T07:17:31.018Z,4.65
2023-10-07T07:20:13.539Z,4.25
2023-10-07T07:22:46.231Z,4.80
2023-10-07T07:25:24.016Z,4.40
2023-10-07T07:27:53.691Z,4.40
2023-10-07T07:30:31.230Z,4.10
2023-10-07T07:33:01.115Z,4.07
2023-10-07T07:35:41.374Z,3.97
2023-10-07T07:38:30.809Z,4.10
2023-10-07T07:41:12.734Z,4.88
2023-10-07T07:43:41.196Z,4.50
2023-10-07T07:46:24.665Z,5.05
2023-10-07T07:48:55.015Z,5.13
2023-10-07T07:51:25.752Z,5.47
2023-10-07T07:53:53.319Z,5.20
2023-10-07T07:56:21.335Z,5.35
2023-10-07T07:58:49.128Z,5.63
2023-10-07T08:01:21.048Z,5.30
2023-10-07T08:03:48.861Z,5.30
2023-10-07T08:06:22.420Z,5.03
2023-10-07T08:08:50.441Z,5.00
2023-10-07T08:11:19.333Z,4.88
2023-10-07T08:13:47.035Z,5.10
2023-10-07T08:16:21.136Z,5.13
2023-10-07T08:18:55.527Z,4.95
2023-10-07T08:21:29.799Z,5.03
2023-10-07T08:24:02.518Z,5.15
2023-10-07T08:26:29.954Z,6.10
2023-10-07T08:28:59.577Z,7.40
2023-10-07T08:31:40.764Z,6.93
2023-10-07T08:34:08.805Z,6.95
2023-10-07T08:36:37.650Z,6.93
2023-10-07T08:39:09.674Z,7.23
2023-10-07T08:41:42.005Z,7.72
2023-10-07T08:44:13.659Z,7.00
2023-10-07T08:46:54.782Z,7.20
2023-10-07T08:49:28.080Z,6.15
2023-10-07T08:51:56.141Z,5.73
2023-10-07T08:54:33.222Z,5.43
2023-10-07T08:57:10.193Z,5.10
2023-10-07T08:59:39.101Z,4.60
2023-10-07T09:02:05.937Z,4.40
2023-10-07T09:04:33.218Z,4.50
2023-10-07T09:07:01.505Z,4.50
2023-10-07T09:09:34.244Z,4.15
2023-10-07T09:12:09.235Z,4.07
2023-10-07T09:14:36.455Z,4.15
2023-10-07T09:17:06.130Z,4.53
2023-10-07T09:19:35.489Z,4.43
2023-10-07T09:22:11.589Z,5.78
2023-10-07T09:24:45.099Z,3.95
2023-10-07T09:27:14.526Z,3.95
2023-10-07T09:29:50.187Z,4.00
2023-10-07T09:32:22.885Z,3.85
2023-10-07T09:34:49.915Z,3.83
2023-10-07T09:37:22.534Z,3.40
2023-10-07T09:39:56.765Z,3.40
2023-10-07T09:42:37.528Z,3.43
2023-10-07T09:45:08.442Z,3.00
2023-10-07T09:47:41.661Z,3.55
2023-10-07T09:50:27.061Z,3.00
2023-10-07T09:53:26.312Z,2.90
2023-10-07T09:56:25.664Z,3.10
2023-10-07T09:59:15.223Z,2.80
2023-10-07T10:02:17.668Z,3.05
2023-10-07T10:05:13.055Z,2.90
2023-10-07T10:08:12.537Z,3.20
2023-10-07T10:10:46.006Z,3.10
2023-10-07T10:13:30.451Z,3.15
2023-10-07T10:16:02.092Z,3.20
2023-10-07T10:18:41.681Z,3.25
2023-10-07T10:21:14.015Z,3.30
2023-10-07T10:23:43.346Z,2.80
2023-10-07T10:26:15.807Z,3.75
2023-10-07T10:28:43.244Z,3.20
2023-10-07T10:31:22.414Z,2.90
2023-10-07T10:33:53.554Z,2.60
2023-10-07T10:36:23.788Z,2.83
2023-10-07T10:38:50.540Z,2.33
2023-10-07T10:41:31.050Z,2.20
2023-10-07T10:44:08.077Z,2.50
2023-10-07T10:46:45.794Z,2.15
2023-10-07T10:49:19.252Z,2.40
2023-10-07T10:51:51.639Z,2.40
2023-10-07T10:54:19.979Z,2.70
2023-10-07T10:57:08.935Z,2.30
2023-10-07T10:59:45.200Z,2.33
2023-10-07T11:02:18.069Z,2.10
2023-10-07T11:04:47.065Z,2.67
2023-10-07T11:07:15.769Z,2.60
2023-10-07T11:09:44.171Z,2.10
2023-10-07T11:12:13.824Z,2.00
2023-10-07T11:14:44.485Z,2.00
2023-10-07T11:17:13.585Z,1.88
2023-10-07T11:19:43.691Z,2.00
2023-10-07T11:22:15.227Z,1.75
2023-10-07T11:24:41.980Z,1.80
2023-10-07T11:27:10.080Z,1.80
2023-10-07T11:29:36.982Z,2.08
2023-10-07T11:32:05.666Z,1.92
2023-10-07T11:34:40.139Z,1.70
2023-10-07T11:37:10.390Z,1.75
2023-10-07T11:39:44.325Z,1.73
2023-10-07T11:42:15.447Z,2.20
2023-10-07T11:44:43.472Z,1.95
2023-10-07T11:47:12.240Z,1.77
2023-10-07T11:49:39.219Z,1.90
2023-10-07T11:52:06.811Z,7.33
2023-10-07T11:54:35.637Z,2.47
2023-10-07T11:57:06.062Z,2.17
2023-10-07T11:59:35.087Z,3.40
2023-10-07T12:02:02.423Z,7.20
2023-10-07T12:04:29.284Z,2.53
2023-10-07T12:06:55.999Z,1.90
2023-10-07T12:09:23.406Z,2.10
2023-10-07T12:11:51.219Z,2.40
2023-10-07T12:14:21.217Z,2.10
2023-10-07T12:16:48.103Z,2.10
2023-10-07T12:19:18.738Z,2.00
2023-10-07T12:21:49.029Z,2.30
2023-10-07T12:24:17.525Z,2.40
2023-10-07T12:26:48.017Z,2.30
2023-10-07T12:29:14.973Z,2.30
2023-10-07T12:31:43.579Z,2.20
2023-10-07T12:34:12.136Z,2.50
2023-10-07T12:36:39.595Z,2.50
2023-10-07T12:39:16.726Z,2.50
2023-10-07T12:41:43.605Z,2.40
2023-10-07T12:44:11.570Z,2.30
2023-10-07T12:46:39.701Z,2.90
2023-10-07T12:49:11.727Z,2.40
2023-10-07T12:51:40.263Z,2.50
2023-10-07T12:54:10.617Z,2.20
2023-10-07T12:56:47.483Z,2.42
2023-10-07T12:59:22.641Z,2.30
2023-10-07T13:01:57.244Z,2.53
2023-10-07T13:04:31.074Z,2.58
2023-10-07T13:07:11.552Z,2.30
2023-10-07T13:09:41.779Z,2.47
2023-10-07T13:12:16.888Z,2.53
2023-10-07T13:14:47.089Z,2.50
2023-10-07T13:17:14.749Z,2.70
2023-10-07T13:19:44.994Z,2.30
2023-10-07T13:22:11.763Z,2.90
2023-10-07T13:24:38.445Z,2.50
2023-10-07T13:27:09.398Z,2.30
2023-10-07T13:29:37.229Z,2.60
2023-10-07T13:32:07.229Z,2.40
2023-10-07T13:34:39.604Z,3.00
2023-10-07T13:37:13.097Z,2.78
2023-10-07T13:39:41.745Z,2.40
2023-10-07T13:42:10.816Z,8.07
2023-10-07T13:44:37.809Z,2.80
2023-10-07T13:47:08.608Z,2.35
2023-10-07T13:49:35.517Z,2.22
2023-10-07T13:52:06.786Z,3.30
2023-10-07T13:54:40.193Z,2.25
2023-10-07T13:57:20.156Z,2.40
2023-10-07T13:59:47.398Z,2.30
2023-10-07T14:02:21.027Z,2.20
2023-10-07T14:04:48.993Z,2.30
2023-10-07T14:07:15.909Z,2.40
2023-10-07T14:09:42.850Z,2.40
2023-10-07T14:12:10.886Z,2.30
2023-10-07T14:14:37.902Z,3.00
2023-10-07T14:17:05.077Z,3.55
2023-10-07T14:19:32.288Z,2.65
2023-10-07T14:21:59.155Z,2.47
2023-10-07T14:24:29.582Z,2.35
2023-10-07T14:26:57.642Z,2.20
2023-10-07T14:29:27.354Z,2.03
2023-10-07T14:31:54.721Z,2.22
2023-10-07T14:34:21.542Z,2.40
2023-10-07T14:36:48.262Z,2.20
2023-10-07T14:39:17.575Z,2.30
2023-10-07T14:41:50.792Z,2.10
2023-10-07T14:44:17.543Z,2.10
2023-10-07T14:46:46.024Z,2.33
2023-10-07T14:49:13.706Z,2.20
2023-10-07T14:51:40.673Z,2.40
2023-10-07T14:54:07.423Z,2.10
2023-10-07T14:56:34.401Z,2.30
2023-10-07T14:59:01.311Z,2.40
2023-10-07T15:01:29.168Z,2.40
2023-10-07T15:03:56.480Z,2.45
2023-10-07T15:06:24.019Z,3.35
2023-10-07T15:08:51.610Z,3.67
2023-10-07T15:11:19.916Z,2.93
2023-10-07T15:13:49.211Z,4.00
2023-10-07T15:16:16.136Z,4.03
2023-10-07T15:18:44.412Z,3.15
2023-10-07T15:21:12.553Z,5.00
2023-10-07T15:23:40.427Z,3.27
2023-10-07T15:26:18.136Z,2.70
2023-10-07T15:28:46.216Z,2.28
2023-10-07T15:31:21.189Z,2.50
2023-10-07T15:33:59.897Z,4.00
2023-10-07T15:36:26.727Z,3.20
2023-10-07T15:38:53.910Z,3.50
2023-10-07T15:41:21.211Z,4.10
2023-10-07T15:43:48.167Z,3.33
2023-10-07T15:46:15.374Z,3.75
2023-10-07T15:48:42.138Z,3.13
2023-10-07T15:51:10.312Z,3.00
2023-10-07T15:53:38.584Z,2.70
2023-10-07T15:56:07.802Z,2.97
2023-10-07T15:58:35.125Z,3.20
2023-10-07T16:01:04.967Z,2.77
2023-10-07T16:03:34.372Z,2.50
2023-10-07T16:06:01.453Z,2.70
2023-10-07T16:08:28.349Z,2.72
2023-10-07T16:10:55.196Z,3.40
2023-10-07T16:13:21.892Z,3.40
2023-10-07T16:15:48.547Z,3.60
2023-10-07T16:18:15.371Z,3.50
2023-10-07T16:20:42.599Z,3.28
2023-10-07T16:23:09.958Z,3.40
2023-10-07T16:25:36.679Z,3.83
2023-10-07T16:28:06.071Z,3.30
2023-10-07T16:30:32.787Z,3.20
2023-10-07T16:32:59.597Z,3.88
2023-10-07T16:35:26.405Z,3.22
2023-10-07T16:37:53.257Z,3.23
2023-10-07T16:40:20.188Z,4.10
2023-10-07T16:42:47.179Z,5.68
2023-10-07T16:45:14.353Z,3.10
2023-10-07T16:47:41.542Z,3.13
2023-10-07T16:50:15.818Z,3.17
2023-10-07T16:52:44.048Z,3.40
2023-10-07T16:55:10.971Z,2.80
2023-10-07T16:57:38.810Z,3.00
2023-10-07T17:00:06.559Z,2.90
2023-10-07T17:02:34.112Z,2.90
2023-10-07T17:05:01.261Z,2.80
2023-10-07T17:07:28.109Z,2.67
2023-10-07T17:09:55.070Z,2.70
2023-10-07T17:12:24.633Z,2.40
2023-10-07T17:14:54.957Z,2.50
2023-10-07T17:17:22.197Z,2.60
2023-10-07T17:19:48.996Z,3.10
2023-10-07T17:22:15.814Z,2.97
2023-10-07T17:24:43.268Z,3.20
2023-10-07T17:27:10.655Z,2.87
2023-10-07T17:29:37.417Z,2.70
2023-10-07T17:32:07.718Z,3.35
2023-10-07T17:34:34.691Z,2.97
2023-10-07T17:37:02.697Z,3.58
2023-10-07T17:39:32.876Z,3.10
2023-10-07T17:42:01.900Z,3.50
2023-10-07T17:44:28.936Z,4.30
2023-10-07T17:46:56.935Z,3.40
2023-10-07T17:49:24.333Z,3.80
2023-10-07T17:51:51.029Z,4.17
2023-10-07T17:54:17.810Z,3.58
2023-10-07T17:56:47.638Z,3.53
2023-10-07T17:59:15.109Z,4.55
2023-10-07T18:01:42.020Z,4.50
2023-10-07T18:04:10.326Z,4.57
2023-10-07T18:06:37.166Z,4.35
2023-10-07T18:09:04.017Z,5.35
2023-10-07T18:11:30.718Z,15.43
2023-10-07T18:13:57.561Z,5.63
2023-10-07T18:16:24.453Z,5.17
2023-10-07T18:21:26.464Z,7.03
2023-10-07T18:23:53.325Z,6.35
2023-10-07T18:26:20.885Z,5.60
2023-10-07T18:28:47.681Z,5.73
2023-10-07T18:31:17.029Z,6.43
2023-10-07T18:33:43.775Z,6.97
2023-10-07T18:36:10.516Z,6.45
2023-10-07T18:38:37.366Z,5.30
2023-10-07T18:41:06.658Z,6.10
2023-10-07T18:43:33.663Z,6.22
2023-10-07T18:46:00.497Z,6.25
2023-10-07T18:48:27.315Z,7.05
2023-10-07T18:50:54.265Z,6.13
2023-10-07T18:53:21.178Z,6.37
2023-10-07T18:55:54.335Z,6.90
2023-10-07T18:58:21.060Z,6.03
2023-10-07T19:00:50.772Z,6.55
2023-10-07T19:03:17.513Z,5.25
2023-10-07T19:05:44.950Z,5.30
2023-10-07T19:08:12.265Z,6.22
2023-10-07T19:10:42.678Z,7.25
2023-10-07T19:13:12.751Z,6.03
2023-10-07T19:15:43.004Z,7.38
2023-10-07T19:18:10.968Z,6.80
2023-10-07T19:20:47.113Z,5.80
2023-10-07T19:23:13.887Z,7.75
2023-10-07T19:25:40.572Z,8.05
2023-10-07T19:28:07.295Z,7.65
2023-10-07T19:30:34.484Z,15.37
2023-10-07T19:33:01.265Z,12.23
2023-10-07T19:35:28.000Z,9.30
2023-10-07T19:37:54.728Z,7.28
2023-10-07T19:40:21.421Z,6.97
2023-10-07T19:42:48.107Z,6.20
2023-10-07T19:45:14.907Z,7.22
2023-10-07T19:47:41.653Z,10.07
2023-10-07T19:50:08.981Z,10.88
2023-10-07T19:52:35.754Z,10.02
2023-10-07T19:55:04.235Z,10.03
2023-10-07T19:57:30.887Z,8.95
2023-10-07T19:59:58.818Z,7.63
2023-10-07T20:02:25.535Z,6.93
2023-10-07T20:04:52.552Z,6.70
2023-10-07T20:07:19.378Z,6.17
2023-10-07T20:09:46.534Z,6.65
2023-10-07T20:12:13.394Z,5.88
2023-10-07T20:14:40.441Z,5.72
2023-10-07T20:17:07.850Z,6.05
2023-10-07T20:19:34.593Z,5.17
2023-10-07T20:22:01.486Z,5.80
2023-10-07T20:24:28.211Z,5.40
2023-10-07T20:26:54.898Z,4.95
2023-10-07T20:29:21.696Z,5.15
2023-10-07T20:31:48.511Z,5.17
2023-10-07T20:34:15.796Z,5.03
2023-10-07T20:36:42.540Z,5.53
2023-10-07T20:39:11.536Z,5.72
2023-10-07T20:41:38.630Z,6.35
2023-10-07T20:44:05.614Z,6.83
2023-10-07T20:46:33.415Z,6.70
2023-10-07T20:49:00.407Z,6.60
2023-10-07T20:51:27.431Z,5.60
2023-10-07T20:53:54.746Z,5.38
2023-10-07T20:56:23.309Z,5.70
2023-10-07T20:58:50.305Z,5.32
2023-10-07T21:01:22.118Z,9.52
2023-10-07T21:03:51.078Z,10.95
2023-10-07T21:06:19.547Z,9.13
2023-10-07T21:08:47.203Z,10.57
2023-10-07T21:11:15.164Z,9.50
2023-10-07T21:13:42.864Z,8.88
2023-10-07T21:16:10.147Z,8.85
2023-10-07T21:18:38.399Z,7.95
2023-10-07T21:21:13.069Z,7.30
2023-10-07T21:23:44.167Z,7.68
2023-10-07T21:26:17.628Z,8.32
2023-10-07T21:28:45.322Z,8.30
2023-10-07T21:31:12.022Z,8.88
2023-10-07T21:33:38.748Z,7.70
2023-10-07T21:36:05.791Z,7.90
2023-10-07T21:38:34.291Z,8.18
2023-10-07T21:41:01.530Z,7.40
2023-10-07T21:43:28.260Z,8.18
2023-10-07T21:45:55.062Z,7.53
2023-10-07T21:48:22.098Z,7.32
2023-10-07T21:50:48.882Z,7.32
2023-10-07T21:53:15.720Z,6.38
2023-10-07T21:55:44.063Z,7.38
2023-10-07T21:58:10.821Z,8.37
2023-10-07T22:00:40.477Z,7.43
2023-10-07T22:03:16.782Z,8.57
2023-10-07T22:05:45.506Z,7.30
2023-10-07T22:08:15.667Z,7.20
2023-10-07T22:10:45.451Z,6.60
2023-10-07T22:13:18.523Z,6.68
2023-10-07T22:15:52.797Z,6.50
2023-10-07T22:18:20.903Z,8.52
2023-10-07T22:20:50.680Z,11.18
2023-10-07T22:23:20.665Z,16.80
2023-10-07T22:25:47.995Z,11.52
2023-10-07T22:28:16.671Z,8.90
2023-10-07T22:30:48.223Z,9.27
2023-10-07T22:33:17.060Z,7.80
2023-10-07T22:35:46.537Z,5.90
2023-10-07T22:38:18.304Z,8.88
2023-10-07T22:40:51.322Z,9.95
2023-10-07T22:43:19.205Z,9.73
2023-10-07T22:45:50.049Z,13.45
2023-10-07T22:48:21.900Z,19.27
2023-10-07T22:50:56.248Z,13.52
2023-10-07T22:53:30.699Z,12.73
2023-10-07T22:56:05.490Z,7.45
2023-10-07T22:58:39.195Z,7.18
2023-10-07T23:01:16.291Z,6.03
2023-10-07T23:03:50.200Z,4.90
2023-10-07T23:06:19.393Z,4.75
2023-10-07T23:08:57.003Z,4.40
2023-10-07T23:11:32.550Z,4.28
2023-10-07T23:14:18.927Z,4.50
2023-10-07T23:16:53.556Z,4.90
2023-10-07T23:19:43.748Z,4.80
2023-10-07T23:22:13.985Z,4.53
2023-10-07T23:24:41.553Z,5.07
2023-10-07T23:27:13.306Z,4.90
2023-10-07T23:29:50.745Z,4.47
2023-10-07T23:32:25.776Z,4.97
2023-10-07T23:35:00.492Z,4.97
2023-10-07T23:37:31.476Z,5.35
2023-10-07T23:40:12.048Z,5.20
2023-10-07T23:42:38.939Z,5.22
2023-10-07T23:45:09.482Z,5.63
2023-10-07T23:47:36.355Z,5.53
2023-10-07T23:50:03.602Z,5.55
2023-10-07T23:52:38.607Z,5.40
2023-10-07T23:55:09.590Z,5.40
2023-10-07T23:57:40.085Z,5.47
